Terminal Aerodrome Forecast
Issued by NWS

Current Version | Previous Version | Text Only | Print | Product List | Glossary Off
Versions: 1 2 3 4 5 6 7 8 9 10 11 12 13 14 15 16 17 18 19 20 21 22 23 24

000
FTUS41 KPBZ 180300 AAA
TAFMGW
TAF AMD
KMGW 180328Z 1803/1824 VRB04KT P6SM SCT080
      TEMPO 1803/1805 1 1/2SM BR
     FM180500 VRB03KT 4SM BR BKN100
     FM181200 VRB04KT P6SM OVC050
     FM181600 04004KT P6SM VCSH BKN040=

USA.gov is the U.S. government's official web portal to all federal, state and local government web resources and services.